AXB1241 VOGO-VABB
Flight info
| Callsign | AXB1241 |
|---|---|
| Flight time | N/A |
| Altitude | 28000 |
| Route | GGO V51 OKILA R461 KABSO KETOR2A |
| Aircraft | B38M/M-SDE1FGHILORVWXY/HB1 |
Departure
| Time | 2026-05-04 11:05 |
|---|---|
| Airport | Goa Dabolim International Airport (VOGO) |
Arrival
| Time | N/A |
|---|---|
| Airport | Chhatrapati Shivaji Maharaj International Airport (VABB) |
| Time | Latitude | Longitude | Altitude | Speed | Heading |
|---|---|---|---|---|---|
| 2026-05-04 10:54 | 15.38435 | 73.83839 | 182 ft | 0 kts | 348° |
| 2026-05-04 10:59 | 15.38433 | 73.83840 | 182 ft | 2 kts | 348° |
| 2026-05-04 10:59 | 15.38415 | 73.83844 | 182 ft | 4 kts | 349° |
| 2026-05-04 10:59 | 15.38389 | 73.83847 | 182 ft | 4 kts | 357° |
| 2026-05-04 10:59 | 15.38363 | 73.83847 | 182 ft | 4 kts | 9° |
| 2026-05-04 11:00 | 15.38343 | 73.83841 | 182 ft | 1 kts | 21° |
| 2026-05-04 11:01 | 15.38344 | 73.83841 | 182 ft | 1 kts | 21° |
| 2026-05-04 11:02 | 15.38363 | 73.83855 | 182 ft | 7 kts | 53° |
| 2026-05-04 11:02 | 15.38373 | 73.83918 | 185 ft | 13 kts | 79° |
| 2026-05-04 11:05 | 15.38597 | 73.79989 | 2097 ft | 180 kts | 313° |
| 2026-05-04 11:06 | 15.39629 | 73.79122 | 2775 ft | 203 kts | 328° |
| 2026-05-04 11:06 | 15.40919 | 73.78366 | 3525 ft | 221 kts | 330° |
| 2026-05-04 11:06 | 15.42301 | 73.77574 | 4394 ft | 232 kts | 331° |
| 2026-05-04 11:06 | 15.43730 | 73.76762 | 5401 ft | 235 kts | 332° |
| 2026-05-04 11:08 | 15.54777 | 73.70575 | 11108 ft | 307 kts | 332° |
| 2026-05-04 11:10 | 15.68724 | 73.62791 | 16575 ft | 340 kts | 332° |
| 2026-05-04 11:12 | 15.83975 | 73.54269 | 20864 ft | 370 kts | 330° |
| 2026-05-04 11:12 | 15.86251 | 73.52997 | 21410 ft | 374 kts | 330° |
| 2026-05-04 11:12 | 15.88615 | 73.51826 | 21925 ft | 379 kts | 340° |
| 2026-05-04 11:12 | 15.91223 | 73.51371 | 22495 ft | 386 kts | 358° |
| 2026-05-04 11:13 | 15.93910 | 73.51723 | 22985 ft | 392 kts | 12° |
| 2026-05-04 11:13 | 15.96579 | 73.52364 | 23466 ft | 397 kts | 11° |
| 2026-05-04 11:13 | 15.99288 | 73.52996 | 23879 ft | 399 kts | 6° |
| 2026-05-04 11:13 | 16.02041 | 73.52996 | 24332 ft | 396 kts | 351° |
| 2026-05-04 11:14 | 16.02969 | 73.52871 | 24477 ft | 397 kts | 351° |
| 2026-05-04 11:16 | 16.30212 | 73.49439 | 27831 ft | 413 kts | 351° |
| 2026-05-04 11:16 | 16.33053 | 73.49074 | 27831 ft | 412 kts | 351° |
| 2026-05-04 11:16 | 16.35896 | 73.48708 | 27833 ft | 412 kts | 351° |
| 2026-05-04 11:17 | 16.38743 | 73.48341 | 27836 ft | 412 kts | 351° |
| 2026-05-04 11:17 | 16.41585 | 73.47975 | 27837 ft | 412 kts | 351° |